Airfield :
LOGIN :

Register | Disclaimer

   EN    FR    IT 

 










Legend :    VFR   Marginal VFR   IFR   Intensive IFR   Very Intensive IFR
Visi :
Ceiling :
>= 8 km
>= 3000ft
5 to 8 km
1000 to 3000 ft
1500m to 5 km
500 to 1000 ft
800 to 1500m
200 to 500 ft
< 800m
< 200 ft
Symbols :   Thunderstorms  Fog  Heavy snow  Heavy precipitations  Wind > 20 kt
SIGMETs :     Misc.  Thunderstorms  Icing  Turbulence  Mountain Waves  Volcanic Ashes






- Airport Elevation : 1411 ft
- IATA code : SZG


LOWS - Salzburg

CURRENT METAR :
  • 280420Z AUTO 16003KT 110V210 3600 BR FEW001 BKN002 M01/M01 Q1020

EXPIRED METARs :
  • 280350Z AUTO VRB02KT 3700 BR SCT002 BKN003 M01/M01 Q1020
  • 280320Z AUTO 11003KT 060V160 2700 BR FEW001 BKN002 M01/M01 Q1020
  • 280250Z AUTO VRB02KT 4500 BR FEW001 BKN002 M01/M01 Q1020
  • 280220Z AUTO 23003KT 2500 BR FEW001 BKN002 M01/M01 Q1020
  • 280150Z AUTO VRB02KT 1600 1300E R15/P1500D R33/P1500D BR SCT001 BKN002 M01/M01 Q1020

TAF TAF LOWS
Valid from the 28 at 00:00 until the 29 at 00:00 UTC


272315Z 2800/2824 VRB02KT 5000 BKN005 TX03/2813Z TNM02/2802Z
TEMPO 2800/2808 0200 FZFG VV001
BECMG 2808/2810 9999 FEW005
BECMG 2814/2817 4000 BKN009
TEMPO 2817/2824 0200 FZFG BKN001



MET'MAP, your aeronautical weather chart ! - Copyright ORBIFLY December 2007 - Disclaimer

ORBIFLY MET'MAP TEAM :

Programming & Development : Alexandra Zaïnal
Concept & original design : Baudouin d'Aumeries
Assistance for programming : Marc-Olivier Méhu
Technical & hardware support : Manuel Goepfert

Contact : metmap@orbifly.com




SOURCES & CREDITS :

   NOAA